createdAt,value
2019-05-09T00:01:23.722Z,11.36
2019-05-09T00:03:53.813Z,11.35
2019-05-09T00:06:23.967Z,11.34
2019-05-09T00:08:53.267Z,11.34
2019-05-09T00:11:21.814Z,11.35
2019-05-09T00:13:50.317Z,11.35
2019-05-09T00:16:18.837Z,11.35
2019-05-09T00:18:47.249Z,11.34
2019-05-09T00:21:17.354Z,11.30
2019-05-09T00:23:45.774Z,11.25
2019-05-09T00:26:14.197Z,11.23
2019-05-09T00:28:44.603Z,11.22
2019-05-09T00:31:23.956Z,11.21
2019-05-09T00:33:54.204Z,11.20
2019-05-09T00:36:23.210Z,11.20
2019-05-09T00:38:53.704Z,11.18
2019-05-09T00:41:23.937Z,11.17
2019-05-09T00:43:54.408Z,11.17
2019-05-09T00:46:24.457Z,11.14
2019-05-09T00:49:00.552Z,11.12
2019-05-09T00:51:29.115Z,11.09
2019-05-09T00:53:57.544Z,11.08
2019-05-09T00:56:26.022Z,11.05
2019-05-09T00:58:54.482Z,11.05
2019-05-09T01:01:24.037Z,11.03
2019-05-09T01:03:53.532Z,11.03
2019-05-09T01:06:23.936Z,11.01
2019-05-09T01:08:53.906Z,11.00
2019-05-09T01:11:24.194Z,10.99
2019-05-09T01:13:54.321Z,10.98
2019-05-09T01:16:24.104Z,10.98
2019-05-09T01:18:59.188Z,10.99
2019-05-09T01:21:27.610Z,10.99
2019-05-09T01:23:56.033Z,10.97
2019-05-09T01:26:24.500Z,10.95
2019-05-09T01:28:53.953Z,10.93
2019-05-09T01:31:24.081Z,10.91
2019-05-09T01:33:54.607Z,10.90
2019-05-09T01:36:23.562Z,10.90
2019-05-09T01:38:53.995Z,10.90
2019-05-09T01:41:29.792Z,10.88
2019-05-09T01:43:53.628Z,10.89
2019-05-09T01:46:23.606Z,10.87
2019-05-09T01:48:53.980Z,10.86
2019-05-09T01:51:23.350Z,10.85
2019-05-09T01:53:53.636Z,10.85
2019-05-09T01:56:23.479Z,10.82
2019-05-09T02:02:33.852Z,10.78
2019-05-09T02:05:04.157Z,10.77
2019-05-09T02:07:33.258Z,10.77
2019-05-09T02:10:03.401Z,10.76
2019-05-09T02:12:33.895Z,10.74
2019-05-09T02:15:13.136Z,10.71
2019-05-09T02:18:00.703Z,10.69
2019-05-09T02:20:24.201Z,10.64
2019-05-09T02:22:54.303Z,10.59
2019-05-09T02:25:24.245Z,10.55
2019-05-09T02:27:55.115Z,10.51
2019-05-09T02:30:25.365Z,10.47
2019-05-09T02:32:54.749Z,10.44
2019-05-09T02:35:23.630Z,10.41
2019-05-09T02:37:52.053Z,10.40
2019-05-09T02:40:20.746Z,10.38
2019-05-09T02:42:49.363Z,10.39
2019-05-09T02:45:19.443Z,10.38
2019-05-09T02:47:49.017Z,10.37
2019-05-09T02:50:19.515Z,10.35
2019-05-09T02:52:48.811Z,10.34
2019-05-09T02:55:18.418Z,10.32
2019-05-09T02:57:49.129Z,10.30
2019-05-09T03:00:39.494Z,10.26
2019-05-09T03:03:10.631Z,10.23
2019-05-09T03:05:39.082Z,10.21
2019-05-09T03:08:09.016Z,10.17
2019-05-09T03:10:38.174Z,10.14
2019-05-09T03:13:09.116Z,10.12
2019-05-09T03:15:39.432Z,10.09
2019-05-09T03:18:08.964Z,10.09
2019-05-09T03:20:39.511Z,10.08
2019-05-09T03:23:09.172Z,10.07
2019-05-09T03:25:40.975Z,10.06
2019-05-09T03:28:28.581Z,10.04
2019-05-09T03:30:59.339Z,10.03
2019-05-09T03:33:29.631Z,10.01
2019-05-09T03:35:58.299Z,10.00
2019-05-09T03:38:28.418Z,9.98
2019-05-09T03:40:58.051Z,9.96
2019-05-09T03:43:27.552Z,9.95
2019-05-09T03:46:14.070Z,9.94
2019-05-09T03:48:47.708Z,9.94
2019-05-09T03:51:18.228Z,9.94
2019-05-09T03:53:48.246Z,9.95
2019-05-09T03:56:27.394Z,9.95
2019-05-09T03:58:57.858Z,9.97
2019-05-09T04:01:28.081Z,10.00
2019-05-09T04:03:58.433Z,10.02
2019-05-09T04:06:28.227Z,10.03
2019-05-09T04:08:58.522Z,10.04
2019-05-09T04:11:27.679Z,10.08
2019-05-09T04:13:58.625Z,10.12
2019-05-09T04:16:27.672Z,10.17
2019-05-09T04:18:58.154Z,10.21
2019-05-09T04:21:27.963Z,10.27
2019-05-09T04:23:58.450Z,10.33
2019-05-09T04:26:32.187Z,10.39
2019-05-09T04:29:00.616Z,10.47
2019-05-09T04:31:29.110Z,10.51
2019-05-09T04:33:57.839Z,10.55
2019-05-09T04:36:41.211Z,10.59
2019-05-09T04:39:21.516Z,10.62
2019-05-09T04:41:42.774Z,10.67
2019-05-09T04:44:19.247Z,10.69
2019-05-09T04:46:48.061Z,10.70
2019-05-09T04:49:18.535Z,10.71
2019-05-09T04:51:47.925Z,10.75
2019-05-09T04:54:17.760Z,10.82
2019-05-09T04:56:47.517Z,10.88
2019-05-09T04:59:17.913Z,10.93
2019-05-09T05:01:48.632Z,10.97
2019-05-09T05:04:18.123Z,10.96
2019-05-09T05:06:47.775Z,10.97
2019-05-09T05:09:20.504Z,11.01
2019-05-09T05:11:49.049Z,11.03
2019-05-09T05:14:22.909Z,11.08
2019-05-09T05:16:58.171Z,11.09
2019-05-09T05:19:25.671Z,11.09
2019-05-09T05:21:58.277Z,11.07
2019-05-09T05:24:31.935Z,11.09
2019-05-09T05:27:00.675Z,11.09
2019-05-09T05:29:29.110Z,11.06
2019-05-09T05:31:59.422Z,11.07
2019-05-09T05:34:31.933Z,11.07
2019-05-09T05:37:00.363Z,11.06
2019-05-09T05:39:29.010Z,11.06
2019-05-09T05:41:58.461Z,11.03
2019-05-09T05:44:28.350Z,11.03
2019-05-09T05:47:04.937Z,11.05
2019-05-09T05:49:33.362Z,11.05
2019-05-09T05:52:02.181Z,11.03
2019-05-09T05:54:30.767Z,11.04
2019-05-09T05:56:59.580Z,11.09
2019-05-09T05:59:28.750Z,11.12
2019-05-09T06:01:58.515Z,11.16
2019-05-09T06:04:27.629Z,11.18
2019-05-09T06:06:58.631Z,11.20
2019-05-09T06:09:28.012Z,11.25
2019-05-09T06:11:59.366Z,11.34
2019-05-09T06:14:28.598Z,11.42
2019-05-09T06:16:58.727Z,11.48
2019-05-09T06:19:28.666Z,11.57
2019-05-09T06:21:57.571Z,11.66
2019-05-09T06:24:29.699Z,11.71
2019-05-09T06:26:58.663Z,11.77
2019-05-09T06:29:28.582Z,11.80
2019-05-09T06:31:58.423Z,11.86
2019-05-09T06:34:27.899Z,11.86
2019-05-09T06:36:58.574Z,11.86
2019-05-09T06:39:28.519Z,11.87
2019-05-09T06:41:57.500Z,11.84
2019-05-09T06:44:37.499Z,11.84
2019-05-09T06:47:08.282Z,11.87
2019-05-09T06:49:38.700Z,11.90
2019-05-09T06:52:08.700Z,11.98
2019-05-09T06:54:41.334Z,12.07
2019-05-09T06:57:08.033Z,12.18
2019-05-09T06:59:38.179Z,12.28
2019-05-09T07:02:08.606Z,12.36
2019-05-09T07:04:41.498Z,12.41
2019-05-09T07:07:23.793Z,12.41
2019-05-09T07:09:58.594Z,12.40
2019-05-09T07:12:27.443Z,12.34
2019-05-09T07:14:57.951Z,12.30
2019-05-09T07:17:31.760Z,12.30
2019-05-09T07:19:58.861Z,12.28
2019-05-09T07:22:43.485Z,12.30
2019-05-09T07:25:18.469Z,12.41
2019-05-09T07:27:48.280Z,12.53
2019-05-09T07:30:34.475Z,12.66
2019-05-09T07:33:19.661Z,12.80
2019-05-09T07:35:48.681Z,12.91
2019-05-09T07:38:18.761Z,12.96
2019-05-09T07:40:47.870Z,12.97
2019-05-09T07:43:17.989Z,13.01
2019-05-09T07:46:08.876Z,13.07
2019-05-09T07:48:38.373Z,13.11
2019-05-09T07:51:07.864Z,13.13
2019-05-09T07:53:38.054Z,13.18
2019-05-09T07:56:07.891Z,13.24
2019-05-09T07:58:37.694Z,13.25
2019-05-09T08:01:08.641Z,13.25
2019-05-09T08:03:38.449Z,13.31
2019-05-09T08:06:08.810Z,13.41
2019-05-09T08:08:38.496Z,13.46
2019-05-09T08:11:08.800Z,13.52
2019-05-09T08:13:39.190Z,13.61
2019-05-09T08:16:12.408Z,13.69
2019-05-09T08:18:38.030Z,13.73
2019-05-09T08:21:08.410Z,13.76
2019-05-09T08:23:37.981Z,13.86
2019-05-09T08:26:08.794Z,13.89
2019-05-09T08:28:38.945Z,13.93
2019-05-09T08:31:08.225Z,14.02
2019-05-09T08:33:38.072Z,14.04
2019-05-09T08:36:08.707Z,13.99
2019-05-09T08:38:38.986Z,13.90
2019-05-09T08:41:09.335Z,13.88
2019-05-09T08:43:39.181Z,13.90
2019-05-09T08:46:08.086Z,13.92
2019-05-09T08:48:37.839Z,13.99
2019-05-09T08:51:09.017Z,14.13
2019-05-09T08:53:38.227Z,14.30
2019-05-09T08:56:08.964Z,14.34
2019-05-09T08:58:38.175Z,14.40
2019-05-09T09:01:09.728Z,14.47
2019-05-09T09:03:37.833Z,14.53
2019-05-09T09:06:08.345Z,14.58
2019-05-09T09:08:38.014Z,14.77
2019-05-09T09:11:08.641Z,15.05
2019-05-09T09:13:37.927Z,15.44
2019-05-09T09:16:18.008Z,15.79
2019-05-09T09:18:38.777Z,16.08
2019-05-09T09:21:08.129Z,16.24
2019-05-09T09:23:43.928Z,16.30
2019-05-09T09:26:08.125Z,16.30
2019-05-09T09:28:37.983Z,16.38
2019-05-09T09:31:08.200Z,16.45
2019-05-09T09:33:37.785Z,16.44
2019-05-09T09:36:08.719Z,16.50
2019-05-09T09:38:37.572Z,16.60
2019-05-09T09:41:11.402Z,16.63
2019-05-09T09:43:39.861Z,16.65
2019-05-09T09:46:14.333Z,16.79
2019-05-09T09:48:39.051Z,16.99
2019-05-09T09:51:08.144Z,17.12
2019-05-09T09:53:38.447Z,17.09
2019-05-09T09:56:08.642Z,16.91
2019-05-09T09:58:38.004Z,16.70
2019-05-09T10:01:23.704Z,16.55
2019-05-09T10:03:53.764Z,16.42
2019-05-09T10:06:22.228Z,16.34
2019-05-09T10:08:50.690Z,16.33
2019-05-09T10:11:19.127Z,16.33
2019-05-09T10:13:48.432Z,16.31
2019-05-09T10:16:34.848Z,16.26
2019-05-09T10:19:10.882Z,16.19
2019-05-09T10:21:40.994Z,16.08
2019-05-09T10:24:09.431Z,15.99
2019-05-09T10:26:39.117Z,16.04
2019-05-09T10:29:07.929Z,16.17
2019-05-09T10:31:39.033Z,16.34
2019-05-09T10:34:06.903Z,16.41
2019-05-09T10:36:35.462Z,16.40
2019-05-09T10:39:08.167Z,16.42
2019-05-09T10:41:37.624Z,16.53
2019-05-09T10:44:08.486Z,16.65
2019-05-09T10:46:56.825Z,16.78
2019-05-09T10:49:18.588Z,16.94
2019-05-09T10:51:48.545Z,17.20
2019-05-09T10:54:18.515Z,17.49
2019-05-09T10:56:48.723Z,17.69
2019-05-09T10:59:18.269Z,17.72
2019-05-09T11:01:49.436Z,17.64
2019-05-09T11:04:18.055Z,17.72
2019-05-09T11:06:46.498Z,17.92
2019-05-09T11:09:15.125Z,18.06
2019-05-09T11:11:43.961Z,18.26
2019-05-09T11:14:27.854Z,18.37
2019-05-09T11:16:46.506Z,18.26
2019-05-09T11:19:13.069Z,18.07
2019-05-09T11:21:41.507Z,17.94
2019-05-09T11:24:09.973Z,17.86
2019-05-09T11:26:39.930Z,17.78
2019-05-09T11:29:08.726Z,17.73
2019-05-09T11:31:38.482Z,17.81
2019-05-09T11:34:08.836Z,18.05
2019-05-09T11:36:38.202Z,18.30
2019-05-09T11:39:10.969Z,18.41
2019-05-09T11:41:39.716Z,18.52
2019-05-09T11:44:08.656Z,18.54
2019-05-09T11:46:38.270Z,18.60
2019-05-09T11:49:08.380Z,18.79
2019-05-09T11:51:37.050Z,18.96
2019-05-09T11:54:05.468Z,19.14
2019-05-09T11:56:33.923Z,19.38
2019-05-09T11:59:02.360Z,19.63
2019-05-09T12:01:32.422Z,19.83
2019-05-09T12:04:01.515Z,20.00
2019-05-09T12:06:29.935Z,20.14
2019-05-09T12:09:01.828Z,20.26
2019-05-09T12:11:30.324Z,20.43
2019-05-09T12:13:59.095Z,20.60
2019-05-09T12:16:28.088Z,20.73
2019-05-09T12:18:58.437Z,20.81
2019-05-09T12:21:28.180Z,20.91
2019-05-09T12:23:58.083Z,20.96
2019-05-09T12:26:29.097Z,21.03
2019-05-09T12:28:57.983Z,21.19
2019-05-09T12:31:28.761Z,21.28
2019-05-09T12:33:59.278Z,21.36
2019-05-09T12:36:28.590Z,21.45
2019-05-09T12:38:59.186Z,21.53
2019-05-09T12:41:31.371Z,21.51
2019-05-09T12:43:57.705Z,21.44
2019-05-09T12:46:28.180Z,21.41
2019-05-09T12:48:59.194Z,21.44
2019-05-09T12:51:28.262Z,21.49
2019-05-09T12:53:57.944Z,21.39
2019-05-09T12:56:28.421Z,21.12
2019-05-09T12:58:57.843Z,20.95
2019-05-09T13:01:29.547Z,21.02
2019-05-09T13:03:58.478Z,21.16
2019-05-09T13:06:29.273Z,21.22
2019-05-09T13:08:58.659Z,21.27
2019-05-09T13:11:28.223Z,21.46
2019-05-09T13:13:56.887Z,21.68
2019-05-09T13:16:42.792Z,21.84
2019-05-09T13:19:03.748Z,21.74
2019-05-09T13:21:33.053Z,21.48
2019-05-09T13:24:02.230Z,21.19
2019-05-09T13:26:30.953Z,20.99
2019-05-09T13:28:59.704Z,20.88
2019-05-09T13:31:29.572Z,20.83
2019-05-09T13:33:58.554Z,20.77
2019-05-09T13:36:28.470Z,20.62
2019-05-09T13:39:04.176Z,20.44
2019-05-09T13:41:27.793Z,20.32
2019-05-09T13:43:59.335Z,20.22
2019-05-09T13:46:28.299Z,20.21
2019-05-09T13:49:08.174Z,20.46
2019-05-09T13:51:26.711Z,21.06
2019-05-09T13:53:55.362Z,21.92
2019-05-09T13:56:24.255Z,22.82
2019-05-09T13:58:52.807Z,23.64
2019-05-09T14:01:21.363Z,24.30
2019-05-09T14:03:49.859Z,24.75
2019-05-09T14:06:18.257Z,25.23
2019-05-09T14:08:49.034Z,25.66
2019-05-09T14:11:19.225Z,25.65
2019-05-09T14:13:48.706Z,25.25
2019-05-09T14:16:22.044Z,24.67
2019-05-09T14:18:48.617Z,24.00
2019-05-09T14:21:21.517Z,23.45
2019-05-09T14:24:01.171Z,23.03
2019-05-09T14:26:18.140Z,22.64
2019-05-09T14:28:48.895Z,22.33
2019-05-09T14:31:18.572Z,22.34
2019-05-09T14:33:47.767Z,22.56
2019-05-09T14:36:16.358Z,22.58
2019-05-09T14:38:44.898Z,22.46
2019-05-09T14:41:13.361Z,22.28
2019-05-09T14:43:41.873Z,22.11
2019-05-09T14:46:10.466Z,22.30
2019-05-09T17:48:18.415Z,22.73
2019-05-09T17:50:47.186Z,22.73
2019-05-09T17:53:17.997Z,18.06
2019-05-09T17:55:47.762Z,17.90
2019-05-09T17:58:27.106Z,17.77
2019-05-09T18:00:48.367Z,17.64
2019-05-09T18:03:18.227Z,17.53
2019-05-09T18:05:48.645Z,17.41
2019-05-09T18:08:18.755Z,17.28
2019-05-09T18:10:48.500Z,17.17
2019-05-09T18:13:23.651Z,17.05
2019-05-09T18:15:48.392Z,16.95
2019-05-09T18:18:18.472Z,16.87
2019-05-09T18:20:47.151Z,16.76
2019-05-09T18:23:17.607Z,16.66
2019-05-09T18:25:45.974Z,16.57
2019-05-09T18:28:17.296Z,16.49
2019-05-09T18:30:47.662Z,16.43
2019-05-09T18:33:22.930Z,16.35
2019-05-09T18:35:51.495Z,16.27
2019-05-09T18:38:27.911Z,16.20
2019-05-09T18:40:57.963Z,16.13
2019-05-09T18:43:27.429Z,16.06
2019-05-09T18:45:57.778Z,16.00
2019-05-09T18:48:27.818Z,15.94
2019-05-09T18:50:56.659Z,15.89
2019-05-09T18:53:25.254Z,15.83
2019-05-09T18:55:53.767Z,15.76
2019-05-09T18:58:22.207Z,15.71
2019-05-09T19:00:51.178Z,15.65
2019-05-09T19:03:19.689Z,15.58
2019-05-09T19:05:48.108Z,15.53
2019-05-09T19:08:16.542Z,15.48
2019-05-09T19:10:45.270Z,15.44
2019-05-09T19:13:13.732Z,15.40
2019-05-09T19:15:43.816Z,15.37
2019-05-09T19:18:13.976Z,15.34
2019-05-09T19:20:50.218Z,15.31
2019-05-09T19:23:18.929Z,15.27
2019-05-09T19:25:47.368Z,15.22
2019-05-09T19:28:15.782Z,15.17
2019-05-09T19:30:44.275Z,15.12
2019-05-09T19:33:12.665Z,15.08
2019-05-09T19:35:41.542Z,15.03
2019-05-09T19:38:09.988Z,14.98
2019-05-09T19:40:38.566Z,14.93
2019-05-09T19:43:06.994Z,14.88
2019-05-09T19:45:35.668Z,14.85
2019-05-09T19:48:04.094Z,14.81
2019-05-09T19:50:32.796Z,14.77
2019-05-09T19:53:01.533Z,14.72
2019-05-09T19:55:29.957Z,14.68
2019-05-09T19:57:58.386Z,14.64
2019-05-09T20:00:27.181Z,14.60
2019-05-09T20:02:55.608Z,14.56
2019-05-09T20:05:24.127Z,14.51
2019-05-09T20:07:52.604Z,14.48
2019-05-09T20:10:22.709Z,14.42
2019-05-09T20:13:09.064Z,14.37
2019-05-09T20:15:37.474Z,14.35
2019-05-09T20:18:05.911Z,14.32
2019-05-09T20:20:34.376Z,14.30
2019-05-09T20:23:02.782Z,14.27
2019-05-09T20:25:31.198Z,14.26
2019-05-09T20:28:00.558Z,14.25
2019-05-09T20:30:28.964Z,14.24
2019-05-09T20:32:57.376Z,14.24
2019-05-09T20:35:26.023Z,14.23
2019-05-09T20:37:54.628Z,14.22
2019-05-09T20:40:23.198Z,14.22
2019-05-09T20:42:51.849Z,14.21
2019-05-09T20:45:20.457Z,14.21
2019-05-09T20:47:49.202Z,14.21
2019-05-09T20:50:17.908Z,14.20
2019-05-09T20:52:46.508Z,14.20
2019-05-09T20:55:15.545Z,14.19
2019-05-09T20:57:44.374Z,14.19
2019-05-09T21:00:13.331Z,14.21
2019-05-09T21:02:42.296Z,14.23
2019-05-09T21:05:11.153Z,14.23
2019-05-09T21:07:39.760Z,14.24
2019-05-09T21:10:08.747Z,14.25
2019-05-09T21:12:37.359Z,14.27
2019-05-09T21:15:08.444Z,14.28
2019-05-09T21:17:37.331Z,14.30
2019-05-09T21:20:09.310Z,14.29
2019-05-09T21:22:37.161Z,14.30
2019-05-09T21:25:07.406Z,14.32
2019-05-09T21:27:36.029Z,14.33
2019-05-09T21:30:10.509Z,14.33
2019-05-09T21:32:39.120Z,14.32
2019-05-09T21:35:08.106Z,14.32
2019-05-09T21:37:36.559Z,14.34
2019-05-09T21:40:08.736Z,14.34
2019-05-09T21:42:37.754Z,14.34
2019-05-09T21:45:09.548Z,14.33
2019-05-09T21:47:37.960Z,14.32
2019-05-09T21:50:07.247Z,14.30
2019-05-09T21:52:35.669Z,14.30
2019-05-09T21:55:05.084Z,14.29
2019-05-09T21:57:33.541Z,14.26
2019-05-09T22:00:02.183Z,14.21
2019-05-09T22:02:30.746Z,14.17
2019-05-09T22:04:59.302Z,14.12
2019-05-09T22:07:27.793Z,14.07
2019-05-09T22:09:56.211Z,14.02
2019-05-09T22:12:24.909Z,13.96
2019-05-09T22:14:53.350Z,13.92
2019-05-09T22:17:38.461Z,13.88
2019-05-09T22:20:12.077Z,13.86
2019-05-09T22:22:40.813Z,13.85
2019-05-09T22:25:09.970Z,13.83
2019-05-09T22:27:38.637Z,13.82
2019-05-09T22:30:10.578Z,13.83
2019-05-09T22:32:38.309Z,13.81
2019-05-09T22:35:07.634Z,13.80
2019-05-09T22:37:36.061Z,13.78
2019-05-09T22:40:07.695Z,13.77
2019-05-09T22:42:36.177Z,13.75
2019-05-09T22:45:09.518Z,13.74
2019-05-09T22:47:38.180Z,13.69
2019-05-09T22:50:07.536Z,13.65
2019-05-09T22:52:35.961Z,13.60
2019-05-09T22:55:05.466Z,13.57
2019-05-09T22:57:33.889Z,13.53
2019-05-09T23:00:02.746Z,13.50
2019-05-09T23:02:31.536Z,13.46
2019-05-09T23:05:00.015Z,13.46
2019-05-09T23:07:28.494Z,13.43
2019-05-09T23:09:57.194Z,13.43
2019-05-09T23:12:25.624Z,13.44
2019-05-09T23:14:54.056Z,13.45
2019-05-09T23:17:22.517Z,13.44
2019-05-09T23:19:50.973Z,13.43
2019-05-09T23:22:20.068Z,13.44
2019-05-09T23:24:48.885Z,13.46
2019-05-09T23:27:19.196Z,13.47
2019-05-09T23:29:47.686Z,13.49
2019-05-09T23:32:20.744Z,13.50
2019-05-09T23:34:49.239Z,13.51
2019-05-09T23:37:17.683Z,13.52
2019-05-09T23:39:53.364Z,13.54
2019-05-09T23:42:21.756Z,13.55
2019-05-09T23:44:50.175Z,13.56
2019-05-09T23:47:18.640Z,13.58
2019-05-09T23:49:47.088Z,13.58
2019-05-09T23:52:15.574Z,13.57
2019-05-09T23:55:02.066Z,13.56
2019-05-09T23:57:48.509Z,13.54
